sensor_id;sensor_type;location;lat;lon;timestamp;temperature;humidity
9305;DHT22;4690;52.422;13.486;2022-12-11T00:06:09;-0.40;99.90
9305;DHT22;4690;52.422;13.486;2022-12-11T00:08:37;-0.40;99.90
9305;DHT22;4690;52.422;13.486;2022-12-11T00:11:04;-0.40;99.90
9305;DHT22;4690;52.422;13.486;2022-12-11T00:13:32;-0.40;99.90
9305;DHT22;4690;52.422;13.486;2022-12-11T00:15:58;-0.40;99.90
9305;DHT22;4690;52.422;13.486;2022-12-11T00:18:24;-0.40;99.90
9305;DHT22;4690;52.422;13.486;2022-12-11T00:20:50;-0.40;99.90
9305;DHT22;4690;52.422;13.486;2022-12-11T00:23:16;-0.40;99.90
9305;DHT22;4690;52.422;13.486;2022-12-11T00:25:43;-0.40;99.90
9305;DHT22;4690;52.422;13.486;2022-12-11T00:28:14;-0.40;99.90
9305;DHT22;4690;52.422;13.486;2022-12-11T00:30:45;-0.40;99.90
9305;DHT22;4690;52.422;13.486;2022-12-11T00:33:13;-0.40;99.90
9305;DHT22;4690;52.422;13.486;2022-12-11T00:35:41;-0.40;99.90
9305;DHT22;4690;52.422;13.486;2022-12-11T00:38:14;-0.40;99.90
9305;DHT22;4690;52.422;13.486;2022-12-11T00:40:41;-0.40;99.90
9305;DHT22;4690;52.422;13.486;2022-12-11T00:43:08;-0.40;99.90
9305;DHT22;4690;52.422;13.486;2022-12-11T00:45:41;-0.40;99.90
9305;DHT22;4690;52.422;13.486;2022-12-11T00:48:12;-0.40;99.90
9305;DHT22;4690;52.422;13.486;2022-12-11T00:50:38;-0.40;99.90
9305;DHT22;4690;52.422;13.486;2022-12-11T00:53:05;-0.40;99.90
9305;DHT22;4690;52.422;13.486;2022-12-11T00:55:36;-0.40;99.90
9305;DHT22;4690;52.422;13.486;2022-12-11T00:58:03;-0.40;99.90
9305;DHT22;4690;52.422;13.486;2022-12-11T01:00:30;-0.40;99.90
9305;DHT22;4690;52.422;13.486;2022-12-11T01:02:56;-0.40;99.90
9305;DHT22;4690;52.422;13.486;2022-12-11T01:05:21;-0.40;99.90
9305;DHT22;4690;52.422;13.486;2022-12-11T01:07:47;-0.40;99.90
9305;DHT22;4690;52.422;13.486;2022-12-11T01:10:14;-0.40;99.90
9305;DHT22;4690;52.422;13.486;2022-12-11T01:13:00;-0.40;99.90
9305;DHT22;4690;52.422;13.486;2022-12-11T01:15:43;-0.40;99.90
9305;DHT22;4690;52.422;13.486;2022-12-11T01:18:11;-0.40;99.90
9305;DHT22;4690;52.422;13.486;2022-12-11T01:20:40;-0.40;99.90
9305;DHT22;4690;52.422;13.486;2022-12-11T01:23:07;-0.30;99.90
9305;DHT22;4690;52.422;13.486;2022-12-11T01:25:35;-0.40;99.90
9305;DHT22;4690;52.422;13.486;2022-12-11T01:28:05;-0.40;99.90
9305;DHT22;4690;52.422;13.486;2022-12-11T01:30:31;-0.40;99.90
9305;DHT22;4690;52.422;13.486;2022-12-11T01:32:57;-0.30;99.90
9305;DHT22;4690;52.422;13.486;2022-12-11T01:35:24;-0.40;99.90
9305;DHT22;4690;52.422;13.486;2022-12-11T01:37:50;-0.40;99.90
9305;DHT22;4690;52.422;13.486;2022-12-11T01:40:17;-0.40;99.90
9305;DHT22;4690;52.422;13.486;2022-12-11T01:42:44;-0.30;99.90
9305;DHT22;4690;52.422;13.486;2022-12-11T01:48:15;-0.30;99.90
9305;DHT22;4690;52.422;13.486;2022-12-11T01:50:57;-0.40;99.90
9305;DHT22;4690;52.422;13.486;2022-12-11T01:53:30;-0.30;99.90
9305;DHT22;4690;52.422;13.486;2022-12-11T01:55:59;-0.40;99.90
9305;DHT22;4690;52.422;13.486;2022-12-11T01:58:34;-0.40;99.90
9305;DHT22;4690;52.422;13.486;2022-12-11T02:01:13;-0.40;99.90
9305;DHT22;4690;52.422;13.486;2022-12-11T02:03:46;-0.40;99.90
9305;DHT22;4690;52.422;13.486;2022-12-11T02:06:33;-0.30;99.90
9305;DHT22;4690;52.422;13.486;2022-12-11T02:09:11;-0.40;99.90
9305;DHT22;4690;52.422;13.486;2022-12-11T02:20:23;-0.40;99.90
9305;DHT22;4690;52.422;13.486;2022-12-11T02:28:29;-0.50;99.90
9305;DHT22;4690;52.422;13.486;2022-12-11T02:31:11;-0.50;99.90
9305;DHT22;4690;52.422;13.486;2022-12-11T02:36:44;-0.50;99.90
9305;DHT22;4690;52.422;13.486;2022-12-11T02:39:15;-0.50;99.90
9305;DHT22;4690;52.422;13.486;2022-12-11T02:41:48;-0.50;99.90
9305;DHT22;4690;52.422;13.486;2022-12-11T02:44:20;-0.50;99.90
9305;DHT22;4690;52.422;13.486;2022-12-11T02:46:50;-0.50;99.90
9305;DHT22;4690;52.422;13.486;2022-12-11T02:49:18;-0.50;99.90
9305;DHT22;4690;52.422;13.486;2022-12-11T02:51:45;-0.50;99.90
9305;DHT22;4690;52.422;13.486;2022-12-11T02:54:19;-0.50;99.90
9305;DHT22;4690;52.422;13.486;2022-12-11T02:59:35;-0.60;99.90
9305;DHT22;4690;52.422;13.486;2022-12-11T03:02:03;-0.50;99.90
9305;DHT22;4690;52.422;13.486;2022-12-11T03:04:29;-0.50;99.90
9305;DHT22;4690;52.422;13.486;2022-12-11T03:07:06;-0.60;99.90
9305;DHT22;4690;52.422;13.486;2022-12-11T03:09:40;-0.60;99.90
9305;DHT22;4690;52.422;13.486;2022-12-11T03:12:09;-0.60;99.90
9305;DHT22;4690;52.422;13.486;2022-12-11T03:14:39;-0.50;99.90
9305;DHT22;4690;52.422;13.486;2022-12-11T03:17:22;-0.60;99.90
9305;DHT22;4690;52.422;13.486;2022-12-11T03:21:01;-0.60;99.90
9305;DHT22;4690;52.422;13.486;2022-12-11T03:26:27;-0.50;99.90
9305;DHT22;4690;52.422;13.486;2022-12-11T03:28:57;-0.50;99.90
9305;DHT22;4690;52.422;13.486;2022-12-11T03:31:33;-0.50;99.90
9305;DHT22;4690;52.422;13.486;2022-12-11T03:34:15;-0.60;99.90
9305;DHT22;4690;52.422;13.486;2022-12-11T03:36:46;-0.60;99.90
9305;DHT22;4690;52.422;13.486;2022-12-11T03:39:20;-0.50;99.90
9305;DHT22;4690;52.422;13.486;2022-12-11T03:41:52;-0.50;99.90
9305;DHT22;4690;52.422;13.486;2022-12-11T03:44:20;-0.60;99.90
9305;DHT22;4690;52.422;13.486;2022-12-11T03:46:50;-0.60;99.90
9305;DHT22;4690;52.422;13.486;2022-12-11T03:49:22;-0.60;99.90
9305;DHT22;4690;52.422;13.486;2022-12-11T03:51:54;-0.50;99.90
9305;DHT22;4690;52.422;13.486;2022-12-11T03:54:23;-0.50;99.90
9305;DHT22;4690;52.422;13.486;2022-12-11T03:56:52;-0.50;99.90
9305;DHT22;4690;52.422;13.486;2022-12-11T03:59:22;-0.50;99.90
9305;DHT22;4690;52.422;13.486;2022-12-11T04:01:48;-0.50;99.90
9305;DHT22;4690;52.422;13.486;2022-12-11T04:04:14;-0.50;99.90
9305;DHT22;4690;52.422;13.486;2022-12-11T04:06:40;-0.50;99.90
9305;DHT22;4690;52.422;13.486;2022-12-11T04:09:06;-0.50;99.90
9305;DHT22;4690;52.422;13.486;2022-12-11T04:11:31;-0.50;99.90
9305;DHT22;4690;52.422;13.486;2022-12-11T04:14:04;-0.50;99.90
9305;DHT22;4690;52.422;13.486;2022-12-11T04:16:50;-0.50;99.90
9305;DHT22;4690;52.422;13.486;2022-12-11T04:19:17;-0.50;99.90
9305;DHT22;4690;52.422;13.486;2022-12-11T04:22:02;-0.50;99.90
9305;DHT22;4690;52.422;13.486;2022-12-11T04:24:58;-0.50;99.90
9305;DHT22;4690;52.422;13.486;2022-12-11T04:27:28;-0.40;99.90
9305;DHT22;4690;52.422;13.486;2022-12-11T04:30:15;-0.50;99.90
9305;DHT22;4690;52.422;13.486;2022-12-11T04:32:42;-0.40;99.90
9305;DHT22;4690;52.422;13.486;2022-12-11T04:35:10;-0.40;99.90
9305;DHT22;4690;52.422;13.486;2022-12-11T04:37:37;-0.50;99.90
9305;DHT22;4690;52.422;13.486;2022-12-11T04:40:05;-0.50;99.90
9305;DHT22;4690;52.422;13.486;2022-12-11T04:42:33;-0.50;99.90
9305;DHT22;4690;52.422;13.486;2022-12-11T04:44:59;-0.60;99.90
9305;DHT22;4690;52.422;13.486;2022-12-11T04:47:24;-0.50;99.90
9305;DHT22;4690;52.422;13.486;2022-12-11T04:49:50;-0.50;99.90
9305;DHT22;4690;52.422;13.486;2022-12-11T04:52:17;-0.60;99.90
9305;DHT22;4690;52.422;13.486;2022-12-11T04:54:43;-0.60;99.90
9305;DHT22;4690;52.422;13.486;2022-12-11T04:57:09;-0.60;99.90
9305;DHT22;4690;52.422;13.486;2022-12-11T04:59:35;-0.60;99.90
9305;DHT22;4690;52.422;13.486;2022-12-11T05:02:02;-0.60;99.90
9305;DHT22;4690;52.422;13.486;2022-12-11T05:04:32;-0.60;99.90
9305;DHT22;4690;52.422;13.486;2022-12-11T05:07:00;-0.50;99.90
9305;DHT22;4690;52.422;13.486;2022-12-11T05:09:26;-0.50;99.90
9305;DHT22;4690;52.422;13.486;2022-12-11T05:11:52;-0.50;99.90
9305;DHT22;4690;52.422;13.486;2022-12-11T05:14:19;-0.50;99.90
9305;DHT22;4690;52.422;13.486;2022-12-11T05:16:45;-0.50;99.90
9305;DHT22;4690;52.422;13.486;2022-12-11T05:19:11;-0.50;99.90
9305;DHT22;4690;52.422;13.486;2022-12-11T05:21:36;-0.60;99.90
9305;DHT22;4690;52.422;13.486;2022-12-11T05:24:03;-0.60;99.90
9305;DHT22;4690;52.422;13.486;2022-12-11T05:26:29;-0.60;99.90
9305;DHT22;4690;52.422;13.486;2022-12-11T05:28:55;-0.60;99.90
9305;DHT22;4690;52.422;13.486;2022-12-11T05:31:23;-0.70;99.90
9305;DHT22;4690;52.422;13.486;2022-12-11T05:33:50;-0.60;99.90
9305;DHT22;4690;52.422;13.486;2022-12-11T05:36:20;-0.60;99.90
9305;DHT22;4690;52.422;13.486;2022-12-11T05:38:51;-0.60;99.90
9305;DHT22;4690;52.422;13.486;2022-12-11T05:41:20;-0.60;99.90
9305;DHT22;4690;52.422;13.486;2022-12-11T05:43:48;-0.60;99.90
9305;DHT22;4690;52.422;13.486;2022-12-11T05:46:19;-0.60;99.90
9305;DHT22;4690;52.422;13.486;2022-12-11T05:48:50;-0.60;99.90
9305;DHT22;4690;52.422;13.486;2022-12-11T05:51:18;-0.60;99.90
9305;DHT22;4690;52.422;13.486;2022-12-11T05:53:46;-0.60;99.90
9305;DHT22;4690;52.422;13.486;2022-12-11T05:56:16;-0.50;99.90
9305;DHT22;4690;52.422;13.486;2022-12-11T05:58:44;-0.50;99.90
9305;DHT22;4690;52.422;13.486;2022-12-11T06:01:17;-0.60;99.90
9305;DHT22;4690;52.422;13.486;2022-12-11T06:03:46;-0.60;99.90
9305;DHT22;4690;52.422;13.486;2022-12-11T06:06:12;-0.60;99.90
9305;DHT22;4690;52.422;13.486;2022-12-11T06:08:38;-0.60;99.90
9305;DHT22;4690;52.422;13.486;2022-12-11T06:11:04;-0.50;99.90
9305;DHT22;4690;52.422;13.486;2022-12-11T06:13:30;-0.60;99.90
9305;DHT22;4690;52.422;13.486;2022-12-11T06:16:00;-0.60;99.90
9305;DHT22;4690;52.422;13.486;2022-12-11T06:18:27;-0.60;99.90
9305;DHT22;4690;52.422;13.486;2022-12-11T06:20:53;-0.60;99.90
9305;DHT22;4690;52.422;13.486;2022-12-11T06:23:19;-0.70;99.90
9305;DHT22;4690;52.422;13.486;2022-12-11T06:25:45;-0.70;99.90
9305;DHT22;4690;52.422;13.486;2022-12-11T06:28:11;-0.70;99.90
9305;DHT22;4690;52.422;13.486;2022-12-11T06:30:37;-0.70;99.90
9305;DHT22;4690;52.422;13.486;2022-12-11T06:33:03;-0.70;99.90
9305;DHT22;4690;52.422;13.486;2022-12-11T06:35:28;-0.70;99.90
9305;DHT22;4690;52.422;13.486;2022-12-11T06:37:54;-0.70;99.90
9305;DHT22;4690;52.422;13.486;2022-12-11T06:40:20;-0.80;99.90
9305;DHT22;4690;52.422;13.486;2022-12-11T06:42:46;-0.70;99.90
9305;DHT22;4690;52.422;13.486;2022-12-11T06:45:13;-0.80;99.90
9305;DHT22;4690;52.422;13.486;2022-12-11T06:47:38;-0.80;99.90
9305;DHT22;4690;52.422;13.486;2022-12-11T06:50:04;-0.90;99.90
9305;DHT22;4690;52.422;13.486;2022-12-11T06:52:31;-0.90;99.90
9305;DHT22;4690;52.422;13.486;2022-12-11T06:54:56;-0.90;99.90
9305;DHT22;4690;52.422;13.486;2022-12-11T06:57:22;-1.00;99.90
9305;DHT22;4690;52.422;13.486;2022-12-11T06:59:48;-0.90;99.90
9305;DHT22;4690;52.422;13.486;2022-12-11T07:02:15;-0.90;99.90
9305;DHT22;4690;52.422;13.486;2022-12-11T07:04:43;-0.90;99.90
9305;DHT22;4690;52.422;13.486;2022-12-11T07:07:09;-0.90;99.90
9305;DHT22;4690;52.422;13.486;2022-12-11T07:09:38;-0.90;99.90
9305;DHT22;4690;52.422;13.486;2022-12-11T07:12:05;-0.90;99.90
9305;DHT22;4690;52.422;13.486;2022-12-11T07:14:32;-1.00;99.90
9305;DHT22;4690;52.422;13.486;2022-12-11T07:16:58;-1.00;99.90
9305;DHT22;4690;52.422;13.486;2022-12-11T07:19:24;-1.00;99.90
9305;DHT22;4690;52.422;13.486;2022-12-11T07:21:50;-1.00;99.90
9305;DHT22;4690;52.422;13.486;2022-12-11T07:24:16;-1.00;99.90
9305;DHT22;4690;52.422;13.486;2022-12-11T07:26:42;-1.00;99.90
9305;DHT22;4690;52.422;13.486;2022-12-11T07:29:08;-1.00;99.90
9305;DHT22;4690;52.422;13.486;2022-12-11T07:31:33;-1.00;99.90
9305;DHT22;4690;52.422;13.486;2022-12-11T07:34:03;-1.00;99.90
9305;DHT22;4690;52.422;13.486;2022-12-11T07:36:30;-1.00;99.90
9305;DHT22;4690;52.422;13.486;2022-12-11T07:38:59;-1.00;99.90
9305;DHT22;4690;52.422;13.486;2022-12-11T07:41:25;-1.00;99.90
9305;DHT22;4690;52.422;13.486;2022-12-11T07:43:57;-1.00;99.90
9305;DHT22;4690;52.422;13.486;2022-12-11T07:46:26;-1.00;99.90
9305;DHT22;4690;52.422;13.486;2022-12-11T07:48:53;-1.00;99.90
9305;DHT22;4690;52.422;13.486;2022-12-11T07:51:21;-1.00;99.90
9305;DHT22;4690;52.422;13.486;2022-12-11T07:53:53;-1.00;99.90
9305;DHT22;4690;52.422;13.486;2022-12-11T07:56:20;-1.00;99.90
9305;DHT22;4690;52.422;13.486;2022-12-11T07:58:46;-1.00;99.90
9305;DHT22;4690;52.422;13.486;2022-12-11T08:01:16;-1.00;99.90
9305;DHT22;4690;52.422;13.486;2022-12-11T08:03:50;-1.10;99.90
9305;DHT22;4690;52.422;13.486;2022-12-11T08:06:17;-1.10;99.90
9305;DHT22;4690;52.422;13.486;2022-12-11T08:08:45;-1.10;99.90
9305;DHT22;4690;52.422;13.486;2022-12-11T08:11:13;-1.10;99.90
9305;DHT22;4690;52.422;13.486;2022-12-11T08:13:40;-1.10;99.90
9305;DHT22;4690;52.422;13.486;2022-12-11T08:16:09;-1.20;99.90
9305;DHT22;4690;52.422;13.486;2022-12-11T08:18:38;-1.10;99.90
9305;DHT22;4690;52.422;13.486;2022-12-11T08:21:19;-1.20;99.90
9305;DHT22;4690;52.422;13.486;2022-12-11T08:23:47;-1.20;99.90
9305;DHT22;4690;52.422;13.486;2022-12-11T08:26:19;-1.20;99.90
9305;DHT22;4690;52.422;13.486;2022-12-11T08:28:46;-1.20;99.90
9305;DHT22;4690;52.422;13.486;2022-12-11T08:31:14;-1.20;99.90
9305;DHT22;4690;52.422;13.486;2022-12-11T08:33:40;-1.20;99.90
9305;DHT22;4690;52.422;13.486;2022-12-11T08:36:09;-1.20;99.90
9305;DHT22;4690;52.422;13.486;2022-12-11T08:38:36;-1.20;99.90
9305;DHT22;4690;52.422;13.486;2022-12-11T08:41:13;-1.10;99.90
9305;DHT22;4690;52.422;13.486;2022-12-11T08:43:43;-1.20;99.90
9305;DHT22;4690;52.422;13.486;2022-12-11T08:46:10;-1.20;99.90
9305;DHT22;4690;52.422;13.486;2022-12-11T08:48:37;-1.20;99.90
9305;DHT22;4690;52.422;13.486;2022-12-11T08:51:06;-1.10;99.90
9305;DHT22;4690;52.422;13.486;2022-12-11T08:53:35;-1.20;99.90
9305;DHT22;4690;52.422;13.486;2022-12-11T08:56:06;-1.20;99.90
9305;DHT22;4690;52.422;13.486;2022-12-11T08:58:40;-1.20;99.90
9305;DHT22;4690;52.422;13.486;2022-12-11T09:01:12;-1.20;99.90
9305;DHT22;4690;52.422;13.486;2022-12-11T09:03:48;-1.10;99.90
9305;DHT22;4690;52.422;13.486;2022-12-11T09:06:18;-1.10;99.90
9305;DHT22;4690;52.422;13.486;2022-12-11T09:08:46;-1.10;99.90
9305;DHT22;4690;52.422;13.486;2022-12-11T09:11:20;-1.00;99.90
9305;DHT22;4690;52.422;13.486;2022-12-11T09:13:48;-1.00;99.90
9305;DHT22;4690;52.422;13.486;2022-12-11T09:16:16;-0.90;99.90
9305;DHT22;4690;52.422;13.486;2022-12-11T09:18:48;-1.00;99.90
9305;DHT22;4690;52.422;13.486;2022-12-11T09:21:17;-0.90;99.90
9305;DHT22;4690;52.422;13.486;2022-12-11T09:23:44;-0.90;99.90
9305;DHT22;4690;52.422;13.486;2022-12-11T09:26:13;-0.90;99.90
9305;DHT22;4690;52.422;13.486;2022-12-11T09:28:41;-0.90;99.90
9305;DHT22;4690;52.422;13.486;2022-12-11T09:31:17;-0.90;99.90
9305;DHT22;4690;52.422;13.486;2022-12-11T09:33:48;-0.90;99.90
9305;DHT22;4690;52.422;13.486;2022-12-11T09:36:16;-0.90;99.90
9305;DHT22;4690;52.422;13.486;2022-12-11T09:38:42;-0.90;99.90
9305;DHT22;4690;52.422;13.486;2022-12-11T09:46:59;-0.90;99.90
9305;DHT22;4690;52.422;13.486;2022-12-11T09:49:38;-0.80;99.90
9305;DHT22;4690;52.422;13.486;2022-12-11T09:52:25;-0.80;99.90
9305;DHT22;4690;52.422;13.486;2022-12-11T09:54:59;-0.80;99.90
9305;DHT22;4690;52.422;13.486;2022-12-11T10:01:02;-0.60;99.90
9305;DHT22;4690;52.422;13.486;2022-12-11T10:04:14;-0.70;99.90
9305;DHT22;4690;52.422;13.486;2022-12-11T10:06:47;-0.70;99.90
9305;DHT22;4690;52.422;13.486;2022-12-11T10:17:44;-0.70;99.90
9305;DHT22;4690;52.422;13.486;2022-12-11T10:20:22;-0.70;99.90
9305;DHT22;4690;52.422;13.486;2022-12-11T10:23:18;-0.60;99.90
9305;DHT22;4690;52.422;13.486;2022-12-11T10:26:03;-0.60;99.90
9305;DHT22;4690;52.422;13.486;2022-12-11T10:28:31;-0.60;99.90
9305;DHT22;4690;52.422;13.486;2022-12-11T10:33:59;-0.50;99.90
9305;DHT22;4690;52.422;13.486;2022-12-11T10:36:33;-0.50;99.90
9305;DHT22;4690;52.422;13.486;2022-12-11T10:39:08;-0.50;99.90
9305;DHT22;4690;52.422;13.486;2022-12-11T10:41:42;-0.60;99.90
9305;DHT22;4690;52.422;13.486;2022-12-11T10:47:20;-0.50;99.90
9305;DHT22;4690;52.422;13.486;2022-12-11T10:49:57;-0.60;99.90
9305;DHT22;4690;52.422;13.486;2022-12-11T10:52:30;-0.60;99.90
9305;DHT22;4690;52.422;13.486;2022-12-11T10:55:20;-0.70;99.90
9305;DHT22;4690;52.422;13.486;2022-12-11T10:57:57;-0.60;99.90
9305;DHT22;4690;52.422;13.486;2022-12-11T11:00:35;-0.60;99.90
9305;DHT22;4690;52.422;13.486;2022-12-11T11:03:24;-0.60;99.90
9305;DHT22;4690;52.422;13.486;2022-12-11T11:06:11;-0.60;99.90
9305;DHT22;4690;52.422;13.486;2022-12-11T11:08:46;-0.60;99.90
9305;DHT22;4690;52.422;13.486;2022-12-11T11:11:28;-0.50;99.90
9305;DHT22;4690;52.422;13.486;2022-12-11T11:14:15;-0.50;99.90
9305;DHT22;4690;52.422;13.486;2022-12-11T11:16:45;-0.60;99.90
9305;DHT22;4690;52.422;13.486;2022-12-11T11:19:31;-0.50;99.90
9305;DHT22;4690;52.422;13.486;2022-12-11T11:22:06;-0.50;99.90
9305;DHT22;4690;52.422;13.486;2022-12-11T11:24:50;-0.50;99.90
9305;DHT22;4690;52.422;13.486;2022-12-11T11:27:35;-0.50;99.90
9305;DHT22;4690;52.422;13.486;2022-12-11T11:30:29;-0.50;99.90
9305;DHT22;4690;52.422;13.486;2022-12-11T11:33:15;-0.50;99.90
9305;DHT22;4690;52.422;13.486;2022-12-11T11:36:04;-0.40;99.90
9305;DHT22;4690;52.422;13.486;2022-12-11T11:38:47;-0.40;99.90
9305;DHT22;4690;52.422;13.486;2022-12-11T11:41:27;-0.40;99.90
9305;DHT22;4690;52.422;13.486;2022-12-11T11:44:01;-0.40;99.90
9305;DHT22;4690;52.422;13.486;2022-12-11T11:49:23;-0.30;99.90
9305;DHT22;4690;52.422;13.486;2022-12-11T11:52:36;-0.30;99.90
9305;DHT22;4690;52.422;13.486;2022-12-11T11:55:19;-0.40;99.90
9305;DHT22;4690;52.422;13.486;2022-12-11T11:58:01;-0.30;99.90
9305;DHT22;4690;52.422;13.486;2022-12-11T12:00:52;-0.30;99.90
9305;DHT22;4690;52.422;13.486;2022-12-11T12:03:22;-0.20;99.90
9305;DHT22;4690;52.422;13.486;2022-12-11T12:15:01;-0.10;99.90
9305;DHT22;4690;52.422;13.486;2022-12-11T12:17:55;-0.20;99.90
9305;DHT22;4690;52.422;13.486;2022-12-11T12:20:42;-0.20;99.90
9305;DHT22;4690;52.422;13.486;2022-12-11T12:23:32;-0.20;99.90
9305;DHT22;4690;52.422;13.486;2022-12-11T12:31:39;0.00;99.90
9305;DHT22;4690;52.422;13.486;2022-12-11T12:42:48;-0.10;99.90
9305;DHT22;4690;52.422;13.486;2022-12-11T12:45:29;-0.10;99.90
9305;DHT22;4690;52.422;13.486;2022-12-11T12:48:02;-0.10;99.90
9305;DHT22;4690;52.422;13.486;2022-12-11T12:50:37;-0.10;99.90
9305;DHT22;4690;52.422;13.486;2022-12-11T12:53:23;-0.10;99.90
9305;DHT22;4690;52.422;13.486;2022-12-11T12:55:53;-0.20;99.90
9305;DHT22;4690;52.422;13.486;2022-12-11T13:01:25;-0.20;99.90
9305;DHT22;4690;52.422;13.486;2022-12-11T13:03:57;-0.20;99.90
9305;DHT22;4690;52.422;13.486;2022-12-11T13:06:41;-0.20;99.90
9305;DHT22;4690;52.422;13.486;2022-12-11T13:09:16;-0.10;99.90
9305;DHT22;4690;52.422;13.486;2022-12-11T13:11:55;-0.20;99.90
9305;DHT22;4690;52.422;13.486;2022-12-11T13:14:31;-0.10;99.90
9305;DHT22;4690;52.422;13.486;2022-12-11T13:17:36;-0.20;99.90
9305;DHT22;4690;52.422;13.486;2022-12-11T13:20:21;-0.20;99.90
9305;DHT22;4690;52.422;13.486;2022-12-11T13:23:16;-0.20;99.90
9305;DHT22;4690;52.422;13.486;2022-12-11T13:28:29;-0.20;99.90
9305;DHT22;4690;52.422;13.486;2022-12-11T13:33:45;-0.20;99.90
9305;DHT22;4690;52.422;13.486;2022-12-11T13:38:54;-0.20;99.90
9305;DHT22;4690;52.422;13.486;2022-12-11T13:41:26;-0.20;99.90
9305;DHT22;4690;52.422;13.486;2022-12-11T13:43:53;-0.20;99.90
9305;DHT22;4690;52.422;13.486;2022-12-11T13:46:24;-0.20;99.90
9305;DHT22;4690;52.422;13.486;2022-12-11T13:48:56;-0.20;99.90
9305;DHT22;4690;52.422;13.486;2022-12-11T13:51:27;-0.20;99.90
9305;DHT22;4690;52.422;13.486;2022-12-11T13:54:21;-0.20;99.90
9305;DHT22;4690;52.422;13.486;2022-12-11T13:59:35;-0.20;99.90
9305;DHT22;4690;52.422;13.486;2022-12-11T14:02:37;-0.20;99.90
9305;DHT22;4690;52.422;13.486;2022-12-11T14:05:10;-0.20;99.90
9305;DHT22;4690;52.422;13.486;2022-12-11T14:07:41;-0.20;99.90
9305;DHT22;4690;52.422;13.486;2022-12-11T14:10:39;-0.10;99.90
9305;DHT22;4690;52.422;13.486;2022-12-11T14:13:15;-0.10;99.90
9305;DHT22;4690;52.422;13.486;2022-12-11T14:15:47;-0.20;99.90
9305;DHT22;4690;52.422;13.486;2022-12-11T14:18:22;-0.20;99.90
9305;DHT22;4690;52.422;13.486;2022-12-11T14:20:56;-0.20;99.90
9305;DHT22;4690;52.422;13.486;2022-12-11T14:23:33;-0.20;99.90
9305;DHT22;4690;52.422;13.486;2022-12-11T14:26:16;-0.10;99.90
9305;DHT22;4690;52.422;13.486;2022-12-11T14:28:43;-0.20;99.90
9305;DHT22;4690;52.422;13.486;2022-12-11T14:31:14;-0.20;99.90
9305;DHT22;4690;52.422;13.486;2022-12-11T14:33:52;-0.20;99.90
9305;DHT22;4690;52.422;13.486;2022-12-11T14:36:20;-0.30;99.90
9305;DHT22;4690;52.422;13.486;2022-12-11T14:38:57;-0.30;99.90
9305;DHT22;4690;52.422;13.486;2022-12-11T14:41:43;-0.30;99.90
9305;DHT22;4690;52.422;13.486;2022-12-11T14:44:16;-0.30;99.90
9305;DHT22;4690;52.422;13.486;2022-12-11T14:46:52;-0.40;99.90
9305;DHT22;4690;52.422;13.486;2022-12-11T14:52:24;-0.40;99.90
9305;DHT22;4690;52.422;13.486;2022-12-11T14:54:59;-0.30;99.90
9305;DHT22;4690;52.422;13.486;2022-12-11T14:57:34;-0.40;99.90
9305;DHT22;4690;52.422;13.486;2022-12-11T15:00:00;-0.40;99.90
9305;DHT22;4690;52.422;13.486;2022-12-11T15:02:32;-0.40;99.90
9305;DHT22;4690;52.422;13.486;2022-12-11T15:10:33;-0.40;99.90
9305;DHT22;4690;52.422;13.486;2022-12-11T15:13:05;-0.40;99.90
9305;DHT22;4690;52.422;13.486;2022-12-11T15:15:44;-0.40;99.90
9305;DHT22;4690;52.422;13.486;2022-12-11T15:18:23;-0.40;99.90
9305;DHT22;4690;52.422;13.486;2022-12-11T15:21:01;-0.40;99.90
9305;DHT22;4690;52.422;13.486;2022-12-11T15:23:31;-0.40;99.90
9305;DHT22;4690;52.422;13.486;2022-12-11T15:26:04;-0.40;99.90
9305;DHT22;4690;52.422;13.486;2022-12-11T15:28:35;-0.40;99.90
9305;DHT22;4690;52.422;13.486;2022-12-11T15:31:06;-0.40;99.90
9305;DHT22;4690;52.422;13.486;2022-12-11T15:33:47;-0.40;99.90
9305;DHT22;4690;52.422;13.486;2022-12-11T15:38:57;-0.40;99.90
9305;DHT22;4690;52.422;13.486;2022-12-11T15:41:24;-0.40;99.90
9305;DHT22;4690;52.422;13.486;2022-12-11T15:43:52;-0.40;99.90
9305;DHT22;4690;52.422;13.486;2022-12-11T15:46:21;-0.40;99.90
9305;DHT22;4690;52.422;13.486;2022-12-11T15:48:48;-0.40;99.90
9305;DHT22;4690;52.422;13.486;2022-12-11T15:51:15;-0.40;99.90
9305;DHT22;4690;52.422;13.486;2022-12-11T15:53:41;-0.40;99.90
9305;DHT22;4690;52.422;13.486;2022-12-11T15:56:16;-0.40;99.90
9305;DHT22;4690;52.422;13.486;2022-12-11T15:58:43;-0.40;99.90
9305;DHT22;4690;52.422;13.486;2022-12-11T16:01:11;-0.50;99.90
9305;DHT22;4690;52.422;13.486;2022-12-11T16:03:37;-0.40;99.90
9305;DHT22;4690;52.422;13.486;2022-12-11T16:06:03;-0.40;99.90
9305;DHT22;4690;52.422;13.486;2022-12-11T16:08:29;-0.40;99.90
9305;DHT22;4690;52.422;13.486;2022-12-11T16:10:55;-0.40;99.90
9305;DHT22;4690;52.422;13.486;2022-12-11T16:13:21;-0.40;99.90
9305;DHT22;4690;52.422;13.486;2022-12-11T16:15:49;-0.40;99.90
9305;DHT22;4690;52.422;13.486;2022-12-11T16:18:18;-0.40;99.90
9305;DHT22;4690;52.422;13.486;2022-12-11T16:20:50;-0.40;99.90
9305;DHT22;4690;52.422;13.486;2022-12-11T16:23:16;-0.40;99.90
9305;DHT22;4690;52.422;13.486;2022-12-11T16:25:43;-0.50;99.90
9305;DHT22;4690;52.422;13.486;2022-12-11T16:28:12;-0.50;99.90
9305;DHT22;4690;52.422;13.486;2022-12-11T16:30:40;-0.50;99.90
9305;DHT22;4690;52.422;13.486;2022-12-11T16:33:07;-0.50;99.90
9305;DHT22;4690;52.422;13.486;2022-12-11T16:35:33;-0.40;99.90
9305;DHT22;4690;52.422;13.486;2022-12-11T16:38:00;-0.50;99.90
9305;DHT22;4690;52.422;13.486;2022-12-11T16:40:26;-0.50;99.90
9305;DHT22;4690;52.422;13.486;2022-12-11T16:42:51;-0.50;99.90
9305;DHT22;4690;52.422;13.486;2022-12-11T16:45:23;-0.50;99.90
9305;DHT22;4690;52.422;13.486;2022-12-11T16:47:51;-0.50;99.90
9305;DHT22;4690;52.422;13.486;2022-12-11T16:50:17;-0.40;99.90
9305;DHT22;4690;52.422;13.486;2022-12-11T16:52:44;-0.50;99.90
9305;DHT22;4690;52.422;13.486;2022-12-11T16:55:11;-0.50;99.90
9305;DHT22;4690;52.422;13.486;2022-12-11T16:57:38;-0.40;99.90
9305;DHT22;4690;52.422;13.486;2022-12-11T17:00:06;-0.40;99.90
9305;DHT22;4690;52.422;13.486;2022-12-11T17:02:34;-0.40;99.90
9305;DHT22;4690;52.422;13.486;2022-12-11T17:05:00;-0.50;99.90
9305;DHT22;4690;52.422;13.486;2022-12-11T17:07:26;-0.40;99.90
9305;DHT22;4690;52.422;13.486;2022-12-11T17:09:51;-0.40;99.90
9305;DHT22;4690;52.422;13.486;2022-12-11T17:12:18;-0.40;99.90
9305;DHT22;4690;52.422;13.486;2022-12-11T17:14:47;-0.40;99.90
9305;DHT22;4690;52.422;13.486;2022-12-11T17:17:13;-0.40;99.90
9305;DHT22;4690;52.422;13.486;2022-12-11T17:19:39;-0.40;99.90
9305;DHT22;4690;52.422;13.486;2022-12-11T17:22:04;-0.40;99.90
9305;DHT22;4690;52.422;13.486;2022-12-11T17:24:30;-0.40;99.90
9305;DHT22;4690;52.422;13.486;2022-12-11T17:26:56;-0.40;99.90
9305;DHT22;4690;52.422;13.486;2022-12-11T17:29:22;-0.40;99.90
9305;DHT22;4690;52.422;13.486;2022-12-11T17:31:47;-0.40;99.90
9305;DHT22;4690;52.422;13.486;2022-12-11T17:34:13;-0.40;99.90
9305;DHT22;4690;52.422;13.486;2022-12-11T17:36:40;-0.40;99.90
9305;DHT22;4690;52.422;13.486;2022-12-11T17:39:06;-0.40;99.90
9305;DHT22;4690;52.422;13.486;2022-12-11T17:41:31;-0.30;99.90
9305;DHT22;4690;52.422;13.486;2022-12-11T17:43:57;-0.30;99.90
9305;DHT22;4690;52.422;13.486;2022-12-11T17:46:23;-0.30;99.90
9305;DHT22;4690;52.422;13.486;2022-12-11T17:48:49;-0.40;99.90
9305;DHT22;4690;52.422;13.486;2022-12-11T17:51:16;-0.40;99.90
9305;DHT22;4690;52.422;13.486;2022-12-11T17:53:48;-0.40;99.90
9305;DHT22;4690;52.422;13.486;2022-12-11T17:56:14;-0.30;99.90
9305;DHT22;4690;52.422;13.486;2022-12-11T17:58:41;-0.40;99.90